Time;durP1;ratioP1;P1;durP2;ratioP2;P2;SDS_P1;SDS_P2;PMS_P1;PMS_P2;Temp;Humidity;BMP_temperature;BMP_pressure;BME280_temperature;BME280_humidity;BME280_pressure;Samples;Min_cycle;Max_cycle;Signal;HPM_P1;HPM_P2
2021/11/17 02:27:43;;;;;;;10.45;8.40;;;17.20;50.10;;;;;;5036754;28;20727;-56
2021/11/17 02:30:59;;;;;;;9.98;7.82;;;17.20;50.10;;;;;;5035695;28;20025;-52
2021/11/17 02:34:19;;;;;;;9.85;8.27;;;17.10;50.10;;;;;;4955379;29;20045;-53
2021/11/17 02:37:10;;;;;;;9.57;8.45;;;17.20;50.10;;;;;;4947256;29;20096;-53
2021/11/17 02:39:52;;;;;;;11.82;8.90;;;17.10;50.10;;;;;;4954883;29;20063;-53
2021/11/17 02:42:50;;;;;;;9.63;8.30;;;17.20;50.10;;;;;;4954873;29;20512;-56
2021/11/17 02:45:28;;;;;;;9.48;8.50;;;17.10;50.10;;;;;;4952221;29;20027;-57
2021/11/17 02:48:18;;;;;;;9.43;8.40;;;17.10;50.10;;;;;;4954555;29;20528;-56
2021/11/17 02:51:00;;;;;;;9.65;8.50;;;17.10;50.10;;;;;;4939432;29;20484;-56
2021/11/17 02:53:48;;;;;;;8.90;8.00;;;17.10;50.10;;;;;;4954625;29;20038;-56
2021/11/17 02:56:33;;;;;;;10.23;7.60;;;17.10;50.20;;;;;;4954363;29;20036;-56
2021/11/17 02:59:04;;;;;;;9.30;8.07;;;17.10;50.20;;;;;;4955420;29;20073;-56
2021/11/17 03:02:21;;;;;;;11.25;8.23;;;17.10;50.20;;;;;;4954764;29;20031;-56
2021/11/17 03:05:17;;;;;;;10.10;8.27;;;17.10;50.20;;;;;;4917088;29;20040;-56
2021/11/17 03:08:08;;;;;;;10.98;8.35;;;17.10;50.20;;;;;;4919552;29;20052;-57
2021/11/17 03:10:59;;;;;;;10.50;8.50;;;17.10;50.20;;;;;;4953701;29;20038;-56
2021/11/17 03:13:43;;;;;;;11.68;8.45;;;17.10;50.20;;;;;;4953832;28;20043;-57
2021/11/17 03:16:43;;;;;;;9.70;8.32;;;17.10;50.20;;;;;;4954190;28;20081;-57
2021/11/17 03:19:18;;;;;;;9.88;7.88;;;17.20;50.00;;;;;;4956154;29;20035;-56
2021/11/17 03:22:03;;;;;;;10.27;8.57;;;17.30;49.70;;;;;;4956437;29;20030;-56
2021/11/17 03:24:52;;;;;;;8.63;7.80;;;17.50;49.40;;;;;;4957344;29;20011;-56
2021/11/17 03:28:02;;;;;;;10.93;8.50;;;17.50;49.20;;;;;;4955660;29;20115;-54
2021/11/17 03:30:41;;;;;;;10.52;8.45;;;17.60;49.10;;;;;;4954538;29;20032;-55
2021/11/17 03:33:27;;;;;;;9.77;8.30;;;17.70;48.90;;;;;;4954489;29;20031;-53
2021/11/17 03:36:23;;;;;;;8.45;7.35;;;17.70;48.80;;;;;;4954256;29;20046;-56
2021/11/17 03:39:08;;;;;;;9.65;7.45;;;17.80;48.70;;;;;;4955372;28;20127;-57
2021/11/17 03:41:40;;;;;;;9.95;7.50;;;17.90;48.40;;;;;;5036244;28;20060;-56
2021/11/17 03:44:43;;;;;;;10.43;8.18;;;18.00;48.30;;;;;;5034890;28;20009;-54
2021/11/17 03:47:33;;;;;;;9.10;7.97;;;18.10;48.00;;;;;;5034777;28;20037;-53
2021/11/17 03:50:18;;;;;;;10.38;7.97;;;18.20;47.80;;;;;;5035614;28;20124;-54
2021/11/17 03:52:56;;;;;;;9.02;8.00;;;18.40;47.60;;;;;;5036726;28;20071;-56
2021/11/17 03:56:01;;;;;;;8.57;7.55;;;18.40;47.30;;;;;;5019596;28;20482;-54
2021/11/17 03:58:51;;;;;;;8.73;7.57;;;18.60;47.00;;;;;;4996302;28;20025;-56
2021/11/17 04:01:47;;;;;;;8.85;7.38;;;18.70;46.90;;;;;;5037522;28;20048;-54
2021/11/17 04:04:32;;;;;;;8.65;7.25;;;18.90;46.50;;;;;;5037245;28;20023;-54
2021/11/17 04:07:11;;;;;;;7.72;6.85;;;18.90;46.60;;;;;;5035135;28;20113;-58
2021/11/17 04:09:49;;;;;;;9.13;7.25;;;19.00;46.10;;;;;;5035949;28;20025;-53
2021/11/17 04:12:25;;;;;;;8.68;6.93;;;19.10;46.00;;;;;;5035169;28;20072;-54
2021/11/17 04:15:30;;;;;;;8.95;7.50;;;19.20;45.90;;;;;;5033742;28;20033;-53
2021/11/17 04:18:10;;;;;;;8.88;7.50;;;19.30;45.70;;;;;;4963223;28;20035;-57
2021/11/17 04:21:01;;;;;;;8.77;7.15;;;19.40;45.40;;;;;;5034220;28;20034;-54
2021/11/17 04:24:00;;;;;;;7.85;7.05;;;19.50;45.30;;;;;;5034345;28;20017;-56
2021/11/17 04:26:37;;;;;;;8.88;7.25;;;19.60;45.10;;;;;;4990350;28;20028;-55
2021/11/17 04:29:09;;;;;;;8.00;7.20;;;19.70;44.90;;;;;;5034551;28;20100;-56
2021/11/17 04:32:00;;;;;;;7.80;7.00;;;19.80;44.80;;;;;;5034388;28;20025;-56
2021/11/17 04:34:38;;;;;;;;;;;19.90;44.60;;;;;;5034916;28;20033;-54
2021/11/17 04:37:30;;;;;;;8.27;7.25;;;19.90;44.50;;;;;;5033919;28;19901;-56
2021/11/17 04:40:20;;;;;;;7.78;6.97;;;20.10;44.30;;;;;;5035921;28;20045;-54
2021/11/17 04:43:06;;;;;;;7.18;6.45;;;20.20;44.10;;;;;;4994380;28;20021;-56
2021/11/17 04:45:48;;;;;;;8.55;7.53;;;20.20;44.00;;;;;;5032841;28;20125;-55
2021/11/17 04:48:35;;;;;;;8.95;7.50;;;20.30;43.90;;;;;;5032975;28;20016;-54
2021/11/17 04:51:27;;;;;;;8.23;6.95;;;20.40;43.80;;;;;;5032630;28;20029;-54
2021/11/17 04:54:03;;;;;;;7.50;6.72;;;20.50;43.70;;;;;;5014995;28;20016;-53
2021/11/17 04:56:39;;;;;;;7.78;6.90;;;20.50;43.50;;;;;;5032589;28;20447;-54
2021/11/17 04:59:15;;;;;;;8.85;6.88;;;20.60;43.50;;;;;;5014815;28;20026;-56
2021/11/17 05:01:52;;;;;;;7.57;6.70;;;20.70;43.30;;;;;;5032441;28;20286;-54
2021/11/17 05:04:21;;;;;;;9.75;7.50;;;20.80;43.20;;;;;;5032861;28;20014;-55
2021/11/17 05:07:02;;;;;;;7.63;6.32;;;20.80;43.10;;;;;;5032287;28;20408;-54
2021/11/17 05:09:58;;;;;;;7.68;6.90;;;20.90;43.10;;;;;;5033450;28;20057;-56
2021/11/17 05:12:48;;;;;;;6.78;6.13;;;20.90;42.90;;;;;;5033983;28;20017;-54
2021/11/17 05:15:20;;;;;;;9.13;6.63;;;21.00;42.90;;;;;;5032967;28;20076;-54
2021/11/17 05:18:09;;;;;;;8.27;7.43;;;21.00;42.80;;;;;;5032854;28;20017;-53
2021/11/17 05:20:55;;;;;;;7.22;6.28;;;21.00;42.80;;;;;;5032569;28;20036;-54
2021/11/17 05:23:52;;;;;;;7.65;6.70;;;21.10;42.70;;;;;;5032875;28;20023;-55
2021/11/17 05:26:49;;;;;;;6.88;6.18;;;21.20;42.70;;;;;;5032483;28;20080;-54
2021/11/17 05:29:40;;;;;;;7.28;6.57;;;21.20;42.60;;;;;;5032467;28;20148;-54
2021/11/17 05:32:15;;;;;;;7.80;6.43;;;21.30;42.60;;;;;;4995649;28;20032;-53
2021/11/17 05:34:56;;;;;;;9.23;6.68;;;21.30;42.60;;;;;;5032854;28;20064;-55
2021/11/17 05:37:45;;;;;;;8.13;6.72;;;21.40;42.60;;;;;;5033604;28;20024;-55
2021/11/17 05:40:37;;;;;;;7.95;7.13;;;21.40;42.50;;;;;;5035769;28;20113;-54
2021/11/17 05:43:08;;;;;;;7.38;6.55;;;21.40;42.40;;;;;;5035835;28;20018;-53
2021/11/17 05:46:06;;;;;;;8.48;6.75;;;21.40;42.40;;;;;;5036458;28;20067;-58
2021/11/17 05:49:06;;;;;;;7.70;6.93;;;21.50;42.50;;;;;;5037758;28;20014;-59
2021/11/17 05:51:57;;;;;;;7.75;6.95;;;21.50;42.40;;;;;;5037589;28;20093;-58
2021/11/17 05:54:26;;;;;;;7.90;6.93;;;21.50;42.40;;;;;;5036781;28;20148;-59
2021/11/17 05:56:55;;;;;;;7.60;6.88;;;21.50;42.30;;;;;;5036516;28;20057;-59
2021/11/17 05:59:45;;;;;;;7.60;6.68;;;21.60;42.30;;;;;;5036120;28;20084;-58
2021/11/17 06:02:36;;;;;;;7.55;6.72;;;21.50;42.40;;;;;;5035648;28;20604;-58
2021/11/17 06:05:02;;;;;;;;;;;21.50;42.50;;;;;;5035867;28;20013;-58
2021/11/17 06:07:28;;;;;;;7.18;6.47;;;21.40;42.50;;;;;;5035205;28;19963;-58
2021/11/17 06:09:56;;;;;;;7.95;6.45;;;21.50;42.70;;;;;;5035371;28;20077;-59
2021/11/17 06:12:22;;;;;;;8.05;6.70;;;21.40;42.80;;;;;;5018708;28;20041;-58
2021/11/17 06:14:49;;;;;;;7.68;6.78;;;21.30;43.00;;;;;;5002691;28;20382;-58
2021/11/17 06:17:19;;;;;;;12.40;6.90;;;21.30;43.00;;;;;;5036754;28;20018;-58
2021/11/17 06:19:47;;;;;;;7.85;6.53;;;21.20;43.10;;;;;;5036038;28;20021;-59
2021/11/17 06:22:13;;;;;;;7.90;6.60;;;21.20;43.80;;;;;;5037290;28;20025;-58
2021/11/17 06:24:39;;;;;;;7.13;6.45;;;21.20;43.40;;;;;;5037009;28;20010;-59
2021/11/17 06:27:06;;;;;;;7.05;6.35;;;21.20;43.40;;;;;;5036553;28;20037;-58
2021/11/17 06:29:37;;;;;;;7.13;6.10;;;21.20;43.50;;;;;;5036436;28;20027;-59
2021/11/17 06:32:03;;;;;;;;;;;21.20;43.50;;;;;;5036508;28;20048;-59
2021/11/17 06:34:34;;;;;;;7.47;6.13;;;21.20;43.50;;;;;;5035918;28;20310;-59
2021/11/17 06:37:03;;;;;;;8.45;5.75;;;21.10;43.60;;;;;;5036226;28;20021;-59
2021/11/17 06:39:29;;;;;;;8.93;6.57;;;21.10;43.60;;;;;;5035933;28;20363;-59
2021/11/17 06:41:55;;;;;;;6.80;5.95;;;21.10;43.60;;;;;;5035379;28;20025;-59
2021/11/17 06:44:23;;;;;;;8.63;6.65;;;21.20;43.70;;;;;;5035491;28;20009;-60
2021/11/17 06:46:49;;;;;;;9.13;6.65;;;21.10;43.70;;;;;;5035967;28;20014;-60
2021/11/17 06:49:15;;;;;;;6.85;6.15;;;21.10;43.80;;;;;;5035553;28;20037;-60
2021/11/17 06:51:40;;;;;;;6.88;6.07;;;21.10;43.70;;;;;;5036329;28;20025;-59
2021/11/17 06:54:06;;;;;;;8.00;6.78;;;21.10;43.70;;;;;;5035697;28;20023;-59
2021/11/17 06:56:33;;;;;;;7.03;6.32;;;21.10;43.80;;;;;;5035189;28;20021;-60
2021/11/17 06:58:59;;;;;;;7.20;6.50;;;21.10;43.80;;;;;;5033769;28;20053;-58
2021/11/17 07:01:25;;;;;;;8.15;6.22;;;21.20;43.80;;;;;;5034825;28;20018;-60
2021/11/17 07:03:51;;;;;;;6.85;5.40;;;21.20;43.80;;;;;;5034384;28;20020;-59
2021/11/17 07:06:17;;;;;;;6.95;6.05;;;21.20;43.70;;;;;;5034961;28;20100;-59
2021/11/17 07:08:43;;;;;;;6.90;5.75;;;21.20;43.80;;;;;;5034886;28;20025;-60
2021/11/17 07:11:09;;;;;;;6.63;5.93;;;21.20;43.90;;;;;;5034262;28;20061;-60
2021/11/17 07:13:35;;;;;;;7.38;6.00;;;21.20;43.80;;;;;;5035845;28;20143;-60
2021/11/17 07:16:02;;;;;;;7.25;5.97;;;21.20;43.90;;;;;;5035452;28;20041;-60
2021/11/17 07:18:29;;;;;;;6.45;5.85;;;21.20;43.90;;;;;;5034536;28;20013;-58
2021/11/17 07:20:55;;;;;;;17.02;6.57;;;21.20;43.90;;;;;;5032977;28;20200;-59
2021/11/17 07:23:22;;;;;;;48.28;9.45;;;21.20;43.90;;;;;;5032281;28;20020;-58
2021/11/17 07:25:49;;;;;;;20.33;9.43;;;21.30;45.70;;;;;;5014072;28;20025;-57
2021/11/17 07:28:17;;;;;;;25.30;10.48;;;21.50;46.30;;;;;;5013688;28;20331;-58
2021/11/17 07:30:48;;;;;;;23.40;10.40;;;21.60;46.70;;;;;;5031733;28;20143;-57
2021/11/17 07:33:14;;;;;;;26.20;13.98;;;21.50;46.50;;;;;;5014768;28;20108;-57
2021/11/17 07:35:45;;;;;;;27.25;15.23;;;20.70;47.20;;;;;;5014487;28;20025;-56
2021/11/17 07:38:13;;;;;;;28.60;16.52;;;20.00;48.80;;;;;;5014343;28;20072;-57
2021/11/17 07:40:41;;;;;;;33.72;17.42;;;19.50;50.10;;;;;;5032000;28;20070;-58
2021/11/17 07:43:09;;;;;;;25.73;17.20;;;19.10;50.90;;;;;;5032041;28;20033;-58
2021/11/17 07:45:36;;;;;;;28.65;17.70;;;19.00;51.00;;;;;;5032598;28;20457;-57
2021/11/17 07:48:07;;;;;;;31.88;17.67;;;18.80;51.70;;;;;;4997875;28;20401;-57
2021/11/17 07:50:34;;;;;;;24.60;17.27;;;18.30;52.60;;;;;;5032138;28;20025;-57
2021/11/17 07:53:01;;;;;;;29.60;18.45;;;18.40;52.80;;;;;;5014196;28;20152;-57
2021/11/17 07:55:26;;;;;;;27.50;17.90;;;18.30;52.90;;;;;;5032042;28;20148;-57
2021/11/17 07:57:53;;;;;;;28.58;18.73;;;18.20;52.60;;;;;;5013873;28;20144;-56
2021/11/17 08:00:25;;;;;;;35.30;19.20;;;17.60;53.80;;;;;;5013304;28;20032;-56
2021/11/17 08:02:51;;;;;;;;;;;17.20;54.80;;;;;;4998207;28;20013;-57
2021/11/17 08:05:18;;;;;;;35.83;19.80;;;16.90;56.10;;;;;;5032197;28;19901;-56
2021/11/17 08:07:44;;;;;;;41.55;21.45;;;16.70;56.70;;;;;;5032455;28;20517;-57
2021/11/17 08:10:16;;;;;;;40.38;22.48;;;16.20;57.90;;;;;;5032305;28;20079;-56
2021/11/17 08:12:42;;;;;;;39.22;20.00;;;15.80;58.90;;;;;;5013890;28;20010;-55
2021/11/17 08:15:09;;;;;;;37.50;19.52;;;16.10;60.00;;;;;;5031839;28;20037;-56
2021/11/17 08:17:35;;;;;;;31.55;17.65;;;16.90;58.10;;;;;;5014388;28;20024;-56
2021/11/17 08:20:01;;;;;;;36.90;19.70;;;17.50;56.20;;;;;;5032345;28;20029;-53
2021/11/17 08:22:27;;;;;;;35.67;19.65;;;17.50;54.60;;;;;;5032867;28;20474;-55
2021/11/17 08:24:53;;;;;;;39.45;21.30;;;16.80;55.80;;;;;;5032774;28;20025;-52
2021/11/17 08:27:23;;;;;;;39.88;21.73;;;16.20;57.10;;;;;;5031799;28;20025;-52
2021/11/17 08:29:50;;;;;;;43.88;21.65;;;15.90;58.60;;;;;;5031976;28;20045;-53
2021/11/17 08:32:18;;;;;;;32.65;20.33;;;15.90;58.70;;;;;;5032208;28;20018;-54
2021/11/17 08:34:44;;;;;;;41.67;21.40;;;15.90;58.90;;;;;;5032341;28;20427;-53
2021/11/17 08:37:10;;;;;;;32.92;19.48;;;15.70;59.30;;;;;;5014479;28;20024;-53
2021/11/17 08:39:37;;;;;;;37.88;21.55;;;15.70;59.50;;;;;;5013968;28;20428;-53
2021/11/17 08:42:03;;;;;;;36.72;22.00;;;15.50;60.50;;;;;;5032406;28;20088;-53
2021/11/17 08:44:30;;;;;;;37.78;21.45;;;15.10;61.40;;;;;;5033038;28;20482;-51
2021/11/17 08:46:56;;;;;;;38.40;22.00;;;15.10;61.80;;;;;;5034463;28;20014;-53
2021/11/17 08:49:22;;;;;;;37.72;21.48;;;15.10;61.80;;;;;;5033288;28;20526;-54
2021/11/17 08:51:48;;;;;;;36.00;20.65;;;15.20;61.90;;;;;;5032960;28;20025;-53
2021/11/17 08:54:14;;;;;;;37.47;20.35;;;15.40;61.30;;;;;;5031946;28;20041;-52
2021/11/17 08:56:40;;;;;;;35.67;20.98;;;15.50;60.70;;;;;;5013894;28;20025;-54
2021/11/17 08:59:07;;;;;;;38.50;20.45;;;15.60;60.50;;;;;;5014115;28;20085;-53
2021/11/17 09:01:33;;;;;;;35.20;21.05;;;15.70;60.00;;;;;;5032151;28;20043;-53
2021/11/17 09:04:00;;;;;;;39.70;20.58;;;15.70;60.00;;;;;;5031408;28;20026;-55
2021/11/17 09:06:26;;;;;;;32.38;20.15;;;15.80;59.80;;;;;;5014321;28;20133;-56
2021/11/17 09:08:52;;;;;;;31.42;18.85;;;16.20;59.20;;;;;;5014370;28;20025;-58
2021/11/17 09:11:19;;;;;;;32.15;20.35;;;16.50;58.20;;;;;;5032978;28;20475;-58
2021/11/17 09:13:46;;;;;;;35.47;20.38;;;16.60;57.70;;;;;;5035363;28;20009;-58
2021/11/17 09:16:13;;;;;;;37.45;21.00;;;16.50;57.70;;;;;;5000322;28;20037;-59
2021/11/17 09:18:39;;;;;;;38.35;20.27;;;16.40;58.40;;;;;;5033795;28;20355;-56
2021/11/17 09:21:12;;;;;;;33.17;19.92;;;16.60;58.90;;;;;;5034668;28;20092;-57
2021/11/17 09:23:38;;;;;;;37.63;21.55;;;16.90;58.80;;;;;;5034306;28;20032;-58
2021/11/17 09:26:06;;;;;;;35.83;21.23;;;16.70;59.00;;;;;;4999706;28;20034;-57
2021/11/17 09:28:33;;;;;;;41.38;21.10;;;16.80;58.90;;;;;;5034069;28;20091;-59
2021/11/17 09:30:59;;;;;;;32.03;20.05;;;16.80;58.80;;;;;;5016009;28;20508;-58
2021/11/17 09:33:26;;;;;;;34.10;20.95;;;16.90;58.70;;;;;;5016307;28;20014;-59
2021/11/17 09:35:52;;;;;;;33.00;20.90;;;16.90;58.80;;;;;;5016177;28;20037;-59
2021/11/17 09:38:18;;;;;;;36.28;20.67;;;17.00;58.40;;;;;;5033843;28;20058;-60
2021/11/17 09:40:48;;;;;;;34.38;21.17;;;17.20;58.40;;;;;;5033341;28;20547;-57
2021/11/17 09:43:19;;;;;;;34.63;21.05;;;17.10;58.50;;;;;;5033829;28;20009;-57
2021/11/17 09:45:45;;;;;;;36.88;21.65;;;17.10;58.40;;;;;;5016607;28;20013;-57
2021/11/17 09:48:12;;;;;;;34.78;21.08;;;17.40;58.10;;;;;;5033799;28;20105;-56
2021/11/17 09:50:46;;;;;;;34.03;22.08;;;17.30;57.80;;;;;;5033650;28;20076;-55
2021/11/17 09:53:38;;;;;;;33.72;21.15;;;17.40;58.00;;;;;;5033535;28;20369;-56
2021/11/17 09:56:18;;;;;;;28.80;20.17;;;17.40;58.00;;;;;;5033409;28;20427;-56
2021/11/17 09:58:52;;;;;;;32.47;20.90;;;17.20;58.40;;;;;;5033613;28;20021;-56
2021/11/17 10:01:20;;;;;;;31.40;20.63;;;17.00;59.00;;;;;;5016031;28;20009;-56
2021/11/17 10:03:53;;;;;;;36.42;21.63;;;17.10;58.70;;;;;;5034117;28;20098;-55
2021/11/17 10:07:24;;;;;;;30.48;20.17;;;17.30;58.70;;;;;;5016414;28;20450;-53
2021/11/17 10:12:55;;;;;;;32.00;20.83;;;17.30;58.30;;;;;;5033834;28;20017;-55
2021/11/17 10:15:22;;;;;;;32.08;20.23;;;17.40;58.60;;;;;;5019710;28;20021;-56
2021/11/17 10:17:52;;;;;;;38.80;19.45;;;17.20;59.10;;;;;;5034104;28;20014;-53
2021/11/17 10:20:27;;;;;;;33.05;20.00;;;17.30;59.00;;;;;;5033943;28;20117;-55
2021/11/17 10:23:05;;;;;;;29.60;18.95;;;17.30;59.30;;;;;;5032778;28;20018;-53
2021/11/17 10:25:40;;;;;;;29.58;19.45;;;17.10;59.70;;;;;;5034092;28;20053;-53
2021/11/17 10:28:06;;;;;;;27.80;18.95;;;16.60;61.10;;;;;;5015855;28;20067;-55
2021/11/17 10:30:49;;;;;;;29.40;19.80;;;16.60;61.70;;;;;;5034039;28;20021;-57
2021/11/17 10:33:43;;;;;;;24.63;18.60;;;16.80;60.80;;;;;;5016870;28;20026;-54
2021/11/17 10:36:20;;;;;;;28.20;18.10;;;16.80;60.90;;;;;;5006031;28;20025;-56
2021/11/17 10:38:50;;;;;;;28.20;18.35;;;17.00;60.90;;;;;;5016140;28;20045;-54
2021/11/17 10:41:25;;;;;;;24.60;18.40;;;17.20;60.20;;;;;;5034161;28;20063;-55
2021/11/17 10:44:03;;;;;;;26.65;18.02;;;17.30;60.40;;;;;;5016309;28;20081;-54
2021/11/17 10:46:38;;;;;;;22.08;16.55;;;17.50;59.90;;;;;;5034087;28;20013;-56
2021/11/17 10:49:06;;;;;;;25.02;17.17;;;17.70;59.40;;;;;;5034403;28;20025;-51
2021/11/17 10:51:47;;;;;;;23.40;16.83;;;17.80;59.20;;;;;;5015764;28;20057;-55
2021/11/17 10:54:13;;;;;;;28.60;17.60;;;17.90;59.10;;;;;;5033719;28;20028;-54
2021/11/17 10:56:41;;;;;;;21.75;16.42;;;17.60;59.70;;;;;;5032757;28;20014;-57
2021/11/17 10:59:08;;;;;;;23.73;15.52;;;17.40;60.40;;;;;;5016591;28;20026;-53
2021/11/17 11:01:41;;;;;;;28.42;16.02;;;17.60;60.40;;;;;;5016614;28;20438;-51
2021/11/17 11:04:17;;;;;;;27.08;15.05;;;18.00;59.30;;;;;;5033526;28;20018;-52
2021/11/17 11:07:22;;;;;;;21.05;13.57;;;18.40;58.20;;;;;;5017553;28;20064;-49
2021/11/17 11:09:54;;;;;;;19.73;13.10;;;18.70;57.10;;;;;;5033819;28;20021;-50
2021/11/17 11:12:20;;;;;;;;;;;19.00;56.20;;;;;;5017091;28;20359;-53
2021/11/17 11:14:49;;;;;;;16.65;11.10;;;19.10;55.70;;;;;;5016197;28;19916;-48
2021/11/17 11:17:21;;;;;;;19.13;10.38;;;19.30;55.20;;;;;;5034144;28;20018;-48
2021/11/17 11:19:47;;;;;;;15.60;9.77;;;19.50;54.60;;;;;;5034287;28;20156;-53
2021/11/17 11:22:15;;;;;;;17.75;8.90;;;19.60;54.20;;;;;;5034248;28;20098;-50
2021/11/17 11:25:07;;;;;;;17.30;9.07;;;19.70;53.80;;;;;;5034447;28;20021;-49
2021/11/17 11:27:35;;;;;;;14.30;8.98;;;19.80;53.40;;;;;;5015155;28;20027;-51
2021/11/17 11:30:04;;;;;;;10.60;7.75;;;19.90;53.10;;;;;;5033970;28;20022;-49
2021/11/17 11:32:30;;;;;;;12.07;7.93;;;20.00;53.00;;;;;;5033694;28;20036;-48
2021/11/17 11:35:00;;;;;;;10.18;7.00;;;20.00;52.70;;;;;;5033519;28;20041;-48
2021/11/17 11:37:25;;;;;;;10.27;7.07;;;20.10;52.60;;;;;;5033910;28;20116;-50
2021/11/17 11:39:56;;;;;;;12.10;6.25;;;20.10;52.40;;;;;;5033964;28;20022;-50
2021/11/17 11:42:27;;;;;;;10.18;7.25;;;20.10;52.40;;;;;;5016262;28;20021;-52
2021/11/17 11:45:21;;;;;;;12.60;6.85;;;20.10;52.20;;;;;;5033803;28;20053;-51
2021/11/17 11:47:51;;;;;;;10.95;6.13;;;20.10;52.20;;;;;;5019429;28;20071;-52
2021/11/17 11:50:37;;;;;;;13.50;6.03;;;20.10;52.10;;;;;;5033825;28;20014;-49
2021/11/17 11:53:08;;;;;;;7.82;5.40;;;20.10;52.20;;;;;;5016796;28;20029;-53
2021/11/17 11:55:52;;;;;;;9.57;6.13;;;20.00;52.20;;;;;;5033692;28;20148;-50
2021/11/17 11:58:20;;;;;;;8.50;5.20;;;20.10;52.20;;;;;;5033876;28;20275;-49
2021/11/17 12:00:54;;;;;;;10.48;5.97;;;20.10;52.10;;;;;;5033672;28;20108;-53
2021/11/17 12:03:20;;;;;;;9.48;5.65;;;20.10;52.10;;;;;;5034374;28;20013;-51
2021/11/17 12:06:10;;;;;;;7.45;5.28;;;20.00;52.20;;;;;;4999871;28;20539;-52
2021/11/17 12:08:55;;;;;;;8.07;4.93;;;20.00;52.10;;;;;;5014085;28;20092;-51
2021/11/17 12:11:28;;;;;;;8.18;5.30;;;20.00;52.20;;;;;;5033757;28;20284;-52
2021/11/17 12:14:09;;;;;;;11.90;5.30;;;20.00;52.20;;;;;;5033419;28;20009;-52
2021/11/17 12:16:37;;;;;;;;;;;19.90;52.30;;;;;;5033991;28;20010;-51
2021/11/17 12:19:30;;;;;;;8.65;5.03;;;19.90;52.30;;;;;;5033179;28;19996;-53
2021/11/17 12:22:04;;;;;;;7.30;4.78;;;19.90;52.20;;;;;;5023462;28;20030;-51
2021/11/17 12:24:32;;;;;;;8.57;4.97;;;19.90;52.40;;;;;;5033555;28;20029;-52
2021/11/17 12:27:02;;;;;;;5.78;4.78;;;19.90;52.40;;;;;;5033967;28;20045;-53
2021/11/17 12:29:56;;;;;;;7.00;4.22;;;19.90;52.50;;;;;;5035231;28;20022;-53
2021/11/17 12:32:28;;;;;;;7.20;4.60;;;19.80;52.50;;;;;;5034840;28;20057;-52
2021/11/17 12:35:00;;;;;;;5.47;4.35;;;19.80;52.40;;;;;;5033305;28;20485;-52
2021/11/17 12:37:37;;;;;;;6.40;4.85;;;19.80;52.50;;;;;;5033575;28;20023;-54
2021/11/17 12:40:07;;;;;;;9.77;4.93;;;19.80;52.40;;;;;;5033862;28;20025;-51
2021/11/17 12:42:37;;;;;;;6.10;4.47;;;19.80;52.40;;;;;;5034094;28;20017;-52
2021/11/17 12:45:26;;;;;;;6.78;4.50;;;19.80;52.40;;;;;;5033595;28;20029;-54
2021/11/17 12:48:00;;;;;;;6.78;4.80;;;19.70;52.50;;;;;;5037782;28;20025;-53
2021/11/17 12:50:38;;;;;;;11.63;4.97;;;19.70;52.60;;;;;;5038892;28;20009;-53
2021/11/17 12:53:13;;;;;;;6.20;4.35;;;19.70;52.50;;;;;;5037903;28;20053;-54
2021/11/17 12:55:46;;;;;;;8.68;4.78;;;19.70;52.50;;;;;;5020355;28;20105;-52
2021/11/17 12:58:20;;;;;;;6.65;4.13;;;19.70;52.60;;;;;;5038012;28;20018;-52
2021/11/17 13:00:55;;;;;;;6.72;4.50;;;19.70;52.70;;;;;;5020449;28;20120;-54
2021/11/17 13:03:28;;;;;;;5.13;4.18;;;19.60;52.70;;;;;;5020074;28;20018;-51
2021/11/17 13:06:21;;;;;;;7.88;4.60;;;19.60;52.80;;;;;;5036698;28;20019;-53
2021/11/17 13:09:09;;;;;;;9.48;5.00;;;19.60;52.90;;;;;;5034157;28;20505;-54
2021/11/17 13:11:46;;;;;;;5.97;4.53;;;19.60;52.90;;;;;;5037300;28;20116;-53
2021/11/17 13:14:17;;;;;;;5.47;4.30;;;19.50;52.90;;;;;;5038013;28;20026;-54
2021/11/17 13:16:46;;;;;;;5.95;4.70;;;19.50;53.00;;;;;;5019370;28;20024;-54
2021/11/17 13:19:27;;;;;;;6.10;4.63;;;19.50;53.00;;;;;;5018253;28;20064;-53
2021/11/17 13:21:55;;;;;;;7.20;4.50;;;19.50;53.00;;;;;;5036254;28;20021;-53
2021/11/17 13:24:23;;;;;;;6.25;4.65;;;19.50;53.10;;;;;;5036135;28;20013;-55
2021/11/17 13:27:13;;;;;;;4.70;4.30;;;19.50;53.10;;;;;;5036159;28;20089;-50
2021/11/17 13:29:53;;;;;;;6.30;4.57;;;19.40;53.10;;;;;;5035671;28;20026;-50
2021/11/17 13:32:21;;;;;;;7.07;4.50;;;19.40;53.10;;;;;;5036210;28;20024;-57
2021/11/17 13:34:50;;;;;;;6.00;4.13;;;19.40;53.20;;;;;;5018539;28;20101;-57
2021/11/17 13:37:32;;;;;;;5.57;4.60;;;19.40;53.20;;;;;;5036432;28;20021;-57
2021/11/17 13:39:59;;;;;;;6.90;4.65;;;19.40;53.30;;;;;;5036480;28;20509;-57
2021/11/17 13:42:26;;;;;;;5.10;3.83;;;19.30;53.30;;;;;;5036777;28;20063;-57
2021/11/17 13:44:56;;;;;;;7.15;4.40;;;19.30;53.30;;;;;;5036085;28;20103;-56
2021/11/17 13:47:22;;;;;;;7.15;4.32;;;19.30;53.30;;;;;;5035787;28;20052;-56
2021/11/17 13:49:49;;;;;;;5.45;4.20;;;19.30;53.30;;;;;;5035619;28;20021;-56
2021/11/17 13:52:18;;;;;;;6.50;4.22;;;19.30;53.40;;;;;;5035387;28;20036;-56
2021/11/17 13:54:45;;;;;;;5.07;4.45;;;19.20;53.40;;;;;;5035213;28;20024;-56
2021/11/17 13:57:11;;;;;;;8.27;4.68;;;19.20;53.50;;;;;;5034774;28;20025;-56
2021/11/17 13:59:37;;;;;;;9.80;4.65;;;19.20;53.60;;;;;;5034625;28;20048;-56
2021/11/17 14:02:04;;;;;;;5.35;4.13;;;19.20;53.60;;;;;;5017873;28;20018;-59
2021/11/17 14:04:30;;;;;;;7.15;4.63;;;19.20;53.50;;;;;;5035124;28;20053;-55
2021/11/17 14:06:56;;;;;;;5.07;4.35;;;19.20;53.50;;;;;;5034977;28;20046;-55
2021/11/17 14:09:23;;;;;;;5.82;4.20;;;19.20;53.50;;;;;;5018446;28;20041;-56
2021/11/17 14:11:49;;;;;;;5.53;4.03;;;19.20;53.60;;;;;;5035911;28;20022;-56
2021/11/17 14:14:15;;;;;;;5.10;4.22;;;19.20;53.50;;;;;;5035418;28;20028;-58
2021/11/17 14:16:41;;;;;;;6.45;4.22;;;19.20;53.50;;;;;;5036199;28;20022;-57
2021/11/17 14:19:07;;;;;;;4.40;3.70;;;19.20;53.40;;;;;;5035662;28;20030;-56
2021/11/17 14:21:34;;;;;;;5.78;4.20;;;19.20;53.30;;;;;;5035806;28;20014;-57
2021/11/17 14:24:00;;;;;;;5.90;3.85;;;19.20;53.30;;;;;;5036011;28;20017;-57
2021/11/17 14:26:26;;;;;;;8.20;4.40;;;19.20;53.50;;;;;;5036515;28;20409;-57
2021/11/17 14:29:05;;;;;;;4.55;4.10;;;19.10;53.40;;;;;;5017698;28;20010;-56
2021/11/17 14:31:35;;;;;;;5.90;4.20;;;19.10;53.60;;;;;;5036039;28;20018;-56
2021/11/17 14:34:05;;;;;;;4.60;3.88;;;19.00;53.60;;;;;;5036495;28;20009;-56
2021/11/17 14:36:36;;;;;;;5.65;3.97;;;19.00;53.60;;;;;;5035938;28;20057;-60
2021/11/17 14:39:03;;;;;;;4.68;4.03;;;19.00;53.70;;;;;;5035287;28;20490;-57
2021/11/17 14:41:30;;;;;;;5.38;4.03;;;19.00;53.60;;;;;;5035141;28;20079;-57
2021/11/17 14:43:55;;;;;;;4.75;3.90;;;19.00;53.60;;;;;;5034529;28;20014;-56
2021/11/17 14:46:22;;;;;;;8.27;4.82;;;19.00;53.70;;;;;;5034455;28;20009;-57
2021/11/17 14:48:48;;;;;;;5.20;4.03;;;19.00;53.70;;;;;;5034640;28;20052;-57
2021/11/17 14:51:14;;;;;;;4.75;3.95;;;19.00;53.70;;;;;;5034351;28;20363;-57
2021/11/17 14:53:44;;;;;;;5.65;3.70;;;18.90;53.80;;;;;;5016594;28;20033;-56
2021/11/17 14:56:10;;;;;;;7.20;4.10;;;18.90;53.80;;;;;;5016536;28;20013;-57
2021/11/17 14:58:37;;;;;;;5.57;4.13;;;18.90;53.80;;;;;;5034077;28;20074;-56
2021/11/17 15:01:07;;;;;;;6.28;4.32;;;18.90;53.90;;;;;;5016781;28;20033;-57
2021/11/17 15:03:33;;;;;;;7.30;3.75;;;18.80;54.00;;;;;;5034942;28;20079;-58
2021/11/17 15:06:00;;;;;;;4.65;4.18;;;18.80;54.00;;;;;;5016610;28;20024;-56
2021/11/17 15:08:28;;;;;;;4.38;3.97;;;18.80;54.00;;;;;;5034244;28;20021;-57
2021/11/17 15:10:54;;;;;;;5.35;4.13;;;18.70;54.60;;;;;;5016868;28;20033;-56
2021/11/17 15:13:20;;;;;;;5.22;4.10;;;18.80;54.10;;;;;;5034177;28;20029;-57
2021/11/17 15:15:48;;;;;;;8.45;4.47;;;18.80;54.10;;;;;;5034478;28;20018;-57
2021/11/17 15:18:21;;;;;;;4.13;3.72;;;18.70;54.10;;;;;;5034751;28;20029;-57
2021/11/17 15:20:49;;;;;;;7.05;4.15;;;18.70;54.10;;;;;;5034024;28;20029;-57
2021/11/17 15:23:15;;;;;;;5.70;4.05;;;18.70;54.10;;;;;;5017620;28;20077;-57
2021/11/17 15:25:41;;;;;;;4.57;3.88;;;18.70;54.10;;;;;;5034690;28;20092;-57
2021/11/17 15:28:14;;;;;;;8.10;4.07;;;18.70;54.10;;;;;;5033712;28;20071;-58
2021/11/17 15:30:43;;;;;;;6.28;4.07;;;18.70;54.10;;;;;;5033539;28;20021;-58
2021/11/17 15:33:10;;;;;;;4.47;4.07;;;18.70;54.10;;;;;;5033568;28;20013;-58
2021/11/17 15:35:36;;;;;;;6.80;4.13;;;18.70;54.10;;;;;;5033863;28;20017;-58
2021/11/17 15:38:03;;;;;;;5.30;4.03;;;18.70;54.20;;;;;;5034900;28;20355;-58
2021/11/17 15:40:32;;;;;;;6.05;4.20;;;18.60;54.20;;;;;;5034584;28;20029;-58
2021/11/17 15:42:59;;;;;;;4.97;4.00;;;18.60;54.10;;;;;;5033979;28;20041;-58
2021/11/17 15:45:25;;;;;;;6.90;4.20;;;18.60;54.20;;;;;;5000649;28;20028;-58
2021/11/17 15:47:51;;;;;;;4.82;3.92;;;18.60;54.20;;;;;;5034751;28;20552;-57